createdAt,value
2019-02-12T00:03:00.442Z,101706.53
2019-02-12T00:05:50.777Z,101704.78
2019-02-12T00:08:54.181Z,101712.61
2019-02-12T00:11:36.914Z,101715.19
2019-02-12T00:14:19.588Z,101713.87
2019-02-12T00:17:09.960Z,101716.48
2019-02-12T00:19:53.019Z,101720.81
2019-02-12T00:22:43.437Z,101719.08
2019-02-12T00:25:26.093Z,101715.17
2019-02-12T00:28:16.456Z,101723.87
2019-02-12T00:30:59.443Z,101724.74
2019-02-12T00:33:49.839Z,101729.53
2019-02-12T00:36:33.159Z,101726.50
2019-02-12T00:39:23.532Z,101732.16
2019-02-12T00:42:06.375Z,101735.63
2019-02-12T00:44:56.748Z,101737.38
2019-02-12T00:47:40.170Z,101733.87
2019-02-12T00:50:30.554Z,101722.98
2019-02-12T00:53:13.372Z,101737.30
2019-02-12T00:56:04.362Z,101736.85
2019-02-12T00:58:47.764Z,101732.09
2019-02-12T01:01:38.134Z,101730.34
2019-02-12T01:04:21.504Z,101729.88
2019-02-12T01:07:11.867Z,101728.18
2019-02-12T01:09:54.456Z,101728.61
2019-02-12T01:12:37.301Z,101732.12
2019-02-12T01:15:27.639Z,101717.77
2019-02-12T01:18:09.177Z,101722.13
2019-02-12T01:20:59.571Z,101734.77
2019-02-12T01:23:42.380Z,101736.07
2019-02-12T01:26:32.791Z,101736.95
2019-02-12T01:29:15.401Z,101733.04
2019-02-12T01:32:05.758Z,101733.92
2019-02-12T01:34:48.418Z,101735.66
2019-02-12T01:37:38.787Z,101739.11
2019-02-12T01:40:22.385Z,101742.17
2019-02-12T01:43:12.764Z,101746.08
2019-02-12T01:45:56.081Z,101747.38
2019-02-12T01:48:46.451Z,101756.96
2019-02-12T01:51:35.043Z,101758.69
2019-02-12T01:54:21.962Z,101762.20
2019-02-12T01:57:04.764Z,101770.91
2019-02-12T01:59:55.234Z,101770.48
2019-02-12T02:02:37.935Z,101768.72
2019-02-12T02:05:28.297Z,101766.99
2019-02-12T02:08:11.714Z,101765.26
2019-02-12T02:11:02.104Z,101762.22
2019-02-12T02:13:44.691Z,101766.99
2019-02-12T02:16:35.035Z,101758.75
2019-02-12T02:19:18.299Z,101764.84
2019-02-12T02:22:08.734Z,101757.86
2019-02-12T02:24:52.132Z,101760.89
2019-02-12T02:27:42.565Z,101768.75
2019-02-12T02:30:25.555Z,101763.53
2019-02-12T02:33:15.929Z,101769.17
2019-02-12T02:35:58.531Z,101773.05
2019-02-12T02:38:48.900Z,101769.13
2019-02-12T02:41:32.116Z,101774.73
2019-02-12T02:44:22.531Z,101773.86
2019-02-12T02:47:05.889Z,101772.98
2019-02-12T02:49:56.270Z,101769.47
2019-02-12T02:52:38.921Z,101771.20
2019-02-12T02:55:29.338Z,101773.36
2019-02-12T02:58:12.368Z,101770.27
2019-02-12T03:01:02.740Z,101780.66
2019-02-12T03:03:46.268Z,101780.17
2019-02-12T03:06:36.663Z,101778.90
2019-02-12T03:09:19.227Z,101785.80
2019-02-12T03:12:09.629Z,101785.80
2019-02-12T03:14:52.286Z,101792.28
2019-02-12T03:17:42.668Z,101790.48
2019-02-12T03:20:25.228Z,101794.81
2019-02-12T03:23:15.581Z,101804.36
2019-02-12T03:25:58.187Z,101802.20
2019-02-12T03:28:48.573Z,101802.67
2019-02-12T03:31:31.562Z,101802.20
2019-02-12T03:34:25.769Z,101814.35
2019-02-12T03:37:28.882Z,101813.43
2019-02-12T03:40:19.261Z,101814.69
2019-02-12T03:43:02.521Z,101824.64
2019-02-12T03:45:53.788Z,101818.98
2019-02-12T03:48:37.183Z,101825.11
2019-02-12T03:51:27.590Z,101819.82
2019-02-12T03:54:10.085Z,101824.56
2019-02-12T03:57:19.311Z,101824.98
2019-02-12T04:00:00.899Z,101818.42
2019-02-12T04:03:02.792Z,101817.50
2019-02-12T04:05:53.174Z,101816.14
2019-02-12T04:08:36.635Z,101818.75
2019-02-12T04:11:26.985Z,101814.33
2019-02-12T04:14:09.591Z,101815.22
2019-02-12T04:16:59.940Z,101811.27
2019-02-12T04:19:43.042Z,101810.89
2019-02-12T04:22:33.425Z,101811.62
2019-02-12T04:25:16.059Z,101807.73
2019-02-12T04:28:06.413Z,101807.67
2019-02-12T04:30:49.072Z,101805.95
2019-02-12T04:33:39.405Z,101810.63
2019-02-12T04:39:38.844Z,101815.73
2019-02-12T04:42:22.321Z,101815.27
2019-02-12T04:45:12.694Z,101816.56
2019-02-12T04:47:55.583Z,101817.39
2019-02-12T04:50:45.926Z,101813.03
2019-02-12T04:53:29.198Z,101811.72
2019-02-12T04:56:19.550Z,101815.27
2019-02-12T04:59:02.920Z,101812.62
2019-02-12T05:01:53.301Z,101811.30
2019-02-12T05:04:36.856Z,101811.30
2019-02-12T05:07:27.209Z,101809.13
2019-02-12T05:10:11.346Z,101809.47
2019-02-12T05:13:01.741Z,101811.25
2019-02-12T05:15:44.993Z,101811.23
2019-02-12T05:18:35.346Z,101807.75
2019-02-12T05:21:17.956Z,101809.88
2019-02-12T05:24:08.382Z,101804.22
2019-02-12T05:26:51.049Z,101802.91
2019-02-12T05:29:41.379Z,101804.11
2019-02-12T05:32:24.040Z,101815.50
2019-02-12T05:35:06.974Z,101814.97
2019-02-12T05:37:57.375Z,101809.77
2019-02-12T05:41:00.160Z,101817.58
2019-02-12T05:43:50.502Z,101818.99
2019-02-12T05:46:33.954Z,101820.64
2019-02-12T05:49:24.357Z,101833.19
2019-02-12T05:52:08.097Z,101826.73
2019-02-12T05:54:58.495Z,101830.65
2019-02-12T05:57:41.222Z,101828.09
2019-02-12T06:00:26.547Z,101829.81
2019-02-12T06:03:16.889Z,101837.32
2019-02-12T06:06:00.479Z,101842.00
2019-02-12T06:08:50.875Z,101837.31
2019-02-12T06:11:34.076Z,101842.06
2019-02-12T06:14:24.454Z,101835.59
2019-02-12T06:17:07.700Z,101829.15
2019-02-12T06:19:58.066Z,101825.73
2019-02-12T06:22:48.425Z,101829.16
2019-02-12T06:25:31.327Z,101845.19
2019-02-12T06:28:21.753Z,101838.27
2019-02-12T06:31:04.979Z,101839.58
2019-02-12T06:33:55.345Z,101847.08
2019-02-12T06:36:37.906Z,101847.19
2019-02-12T06:39:28.299Z,101843.23
2019-02-12T06:42:11.130Z,101846.30
2019-02-12T06:44:53.785Z,101845.88
2019-02-12T06:51:11.679Z,101857.70
2019-02-12T06:54:02.092Z,101861.08
2019-02-12T06:56:52.486Z,101859.73
2019-02-12T06:59:35.224Z,101862.33
2019-02-12T07:03:03.679Z,101861.09
2019-02-12T07:05:48.424Z,101865.88
2019-02-12T07:09:16.844Z,101874.57
2019-02-12T07:12:18.716Z,101878.95
2019-02-12T07:15:30.328Z,101883.38
2019-02-12T07:18:58.756Z,101893.89
2019-02-12T07:21:47.599Z,101907.02
2019-02-12T07:25:16.041Z,101904.79
2019-02-12T07:28:29.245Z,101911.08
2019-02-12T07:31:57.687Z,101919.68
2019-02-12T07:34:42.845Z,101930.94
2019-02-12T07:37:49.807Z,101923.95
2019-02-12T07:40:51.462Z,101922.28
2019-02-12T07:44:19.874Z,101933.55
2019-02-12T07:47:21.835Z,101943.17
2019-02-12T07:50:50.271Z,101949.38
2019-02-12T07:53:55.211Z,101951.10
2019-02-12T07:57:05.725Z,101944.27
2019-02-12T07:59:57.062Z,101951.25
2019-02-12T08:03:21.955Z,101964.79
2019-02-12T08:06:40.418Z,101973.97
2019-02-12T08:09:59.792Z,101969.85
2019-02-12T08:13:28.289Z,101970.19
2019-02-12T08:16:40.719Z,101978.89
2019-02-12T08:19:27.845Z,101991.63
2019-02-12T08:22:56.244Z,101999.41
2019-02-12T08:25:57.928Z,101994.97
2019-02-12T08:29:23.993Z,101994.23
2019-02-12T08:32:17.966Z,102006.28
2019-02-12T08:35:46.379Z,101999.30
2019-02-12T08:38:48.975Z,102009.36
2019-02-12T08:42:17.435Z,102009.87
2019-02-12T08:45:05.685Z,102009.61
2019-02-12T08:48:24.489Z,102009.76
2019-02-12T08:51:52.931Z,102008.83
2019-02-12T08:54:47.416Z,102001.38
2019-02-12T08:58:01.077Z,102007.02
2019-02-12T09:00:47.631Z,102008.83
2019-02-12T09:04:16.116Z,102019.72
2019-02-12T09:07:24.572Z,102025.83
2019-02-12T09:10:53.017Z,102035.36
2019-02-12T09:13:41.686Z,102043.61
2019-02-12T09:17:10.145Z,102046.73
2019-02-12T09:19:55.996Z,102051.12
2019-02-12T09:23:21.302Z,102047.66
2019-02-12T09:26:23.487Z,102049.02
2019-02-12T09:29:51.943Z,102039.94
2019-02-12T09:32:53.891Z,102042.49
2019-02-12T09:36:22.299Z,102037.41
2019-02-12T09:39:24.684Z,102038.72
2019-02-12T09:42:53.123Z,102040.41
2019-02-12T09:46:01.418Z,102043.09
2019-02-12T09:49:29.839Z,102045.28
2019-02-12T09:52:19.278Z,102051.05
2019-02-12T09:55:40.779Z,102056.31
2019-02-12T09:58:54.498Z,102056.43
2019-02-12T10:01:44.024Z,102053.89
2019-02-12T10:05:12.475Z,102051.41
2019-02-12T10:08:14.234Z,102058.04
2019-02-12T10:11:30.703Z,102053.38
2019-02-12T10:14:35.831Z,102047.45
2019-02-12T10:18:04.202Z,102054.05
2019-02-12T10:20:51.147Z,102052.41
2019-02-12T10:24:05.062Z,102055.06
2019-02-12T10:26:53.875Z,102053.31
2019-02-12T10:30:17.443Z,102059.38
2019-02-12T10:33:00.701Z,102063.27
2019-02-12T10:35:51.064Z,102067.13
2019-02-12T10:38:33.629Z,102072.77
2019-02-12T10:41:23.978Z,102069.97
2019-02-12T10:44:06.504Z,102064.70
2019-02-12T10:46:56.914Z,102061.32
2019-02-12T10:49:39.816Z,102056.64
2019-02-12T10:52:30.232Z,102057.95
2019-02-12T10:55:12.970Z,102051.72
2019-02-12T10:58:22.200Z,102059.06
2019-02-12T11:01:05.772Z,102044.92
2019-02-12T11:03:56.168Z,102049.42
2019-02-12T11:06:38.938Z,102048.05
2019-02-12T11:12:56.448Z,102045.16
2019-02-12T11:15:46.847Z,102039.48
2019-02-12T11:18:37.191Z,102034.27
2019-02-12T11:21:19.784Z,102034.88
2019-02-12T11:24:10.160Z,102036.94
2019-02-12T11:26:53.507Z,102039.83
2019-02-12T11:29:43.903Z,102041.98
2019-02-12T11:32:26.449Z,102035.41
2019-02-12T11:35:16.820Z,102030.39
2019-02-12T11:37:59.852Z,102031.06
2019-02-12T11:40:50.248Z,102030.67
2019-02-12T11:43:33.336Z,102037.37
2019-02-12T11:46:23.677Z,102043.25
2019-02-12T11:49:07.103Z,102047.14
2019-02-12T11:51:57.481Z,102050.23
2019-02-12T11:54:43.673Z,102043.42
2019-02-12T11:57:32.157Z,102035.01
2019-02-12T12:03:20.393Z,102036.27
2019-02-12T12:06:10.786Z,102039.08
2019-02-12T12:08:53.579Z,102037.49
2019-02-12T12:11:43.922Z,102037.55
2019-02-12T12:14:26.809Z,102036.84
2019-02-12T12:17:17.195Z,102035.50
2019-02-12T12:20:00.471Z,102031.66
2019-02-12T12:22:50.863Z,102040.67
2019-02-12T12:25:34.341Z,102037.42
2019-02-12T12:28:24.745Z,102031.33
2019-02-12T12:31:08.123Z,102029.54
2019-02-12T12:33:58.487Z,102031.77
2019-02-12T12:36:41.654Z,102030.55
2019-02-12T12:39:32.018Z,102023.71
2019-02-12T12:42:15.197Z,102026.44
2019-02-12T12:45:06.371Z,102032.23
2019-02-12T12:47:56.718Z,102030.06
2019-02-12T12:50:39.293Z,102040.56
2019-02-12T12:53:29.683Z,102034.45
2019-02-12T12:56:13.158Z,102037.08
2019-02-12T12:59:03.511Z,102037.95
2019-02-12T13:01:46.197Z,102042.69
2019-02-12T13:04:28.732Z,102038.34
2019-02-12T13:07:19.116Z,102033.55
2019-02-12T13:10:02.112Z,102029.66
2019-02-12T13:12:52.478Z,102029.59
2019-02-12T13:15:35.445Z,102025.22
2019-02-12T13:18:25.822Z,102023.04
2019-02-12T13:21:16.452Z,102020.39
2019-02-12T13:24:06.800Z,102029.56
2019-02-12T13:26:49.491Z,102030.39
2019-02-12T13:29:39.973Z,102025.56
2019-02-12T13:32:23.222Z,102033.46
2019-02-12T13:38:42.299Z,102032.95
2019-02-12T13:41:32.657Z,102035.17
2019-02-12T13:44:15.828Z,102045.64
2019-02-12T13:46:58.577Z,102034.23
2019-02-12T13:49:48.940Z,102034.25
2019-02-12T13:52:31.837Z,102041.30
2019-02-12T13:55:22.715Z,102022.54
2019-02-12T13:58:26.733Z,102034.36
2019-02-12T14:01:17.047Z,102034.80
2019-02-12T14:04:00.354Z,102033.42
2019-02-12T14:06:50.688Z,102021.60
2019-02-12T14:09:34.182Z,102041.78
2019-02-12T14:12:24.566Z,102027.28
2019-02-12T14:15:08.476Z,102025.52
2019-02-12T14:17:58.838Z,102028.98
2019-02-12T14:20:41.449Z,102021.48
2019-02-12T14:23:31.825Z,102026.91
2019-02-12T14:26:15.032Z,102035.41
2019-02-12T14:29:05.431Z,102035.93
2019-02-12T14:31:53.035Z,102026.61
2019-02-12T14:34:40.942Z,102031.09
2019-02-12T14:37:24.380Z,102036.63
2019-02-12T14:43:32.237Z,102033.00
2019-02-12T14:46:22.591Z,102020.33
2019-02-12T14:49:12.986Z,102021.72
2019-02-12T14:51:55.741Z,102016.85
2019-02-12T14:54:38.378Z,102020.50
2019-02-12T14:57:28.753Z,102035.28
2019-02-12T15:00:12.785Z,102037.57
2019-02-12T15:03:03.218Z,102036.57
2019-02-12T15:05:46.737Z,102021.45
2019-02-12T15:08:37.136Z,102026.30
2019-02-12T15:11:21.345Z,102037.70
2019-02-12T15:14:11.722Z,102026.62
2019-02-12T15:16:55.005Z,102020.31
2019-02-12T15:19:45.415Z,102005.98
2019-02-12T15:22:28.055Z,102018.42
2019-02-12T15:25:18.406Z,102015.77
2019-02-12T15:28:01.727Z,102012.59
2019-02-12T15:30:52.112Z,102013.63
2019-02-12T15:33:35.373Z,102024.09
2019-02-12T15:36:25.816Z,102029.95
2019-02-12T15:39:09.010Z,102034.45
2019-02-12T15:41:59.417Z,102028.05
2019-02-12T15:44:42.708Z,102039.42
2019-02-12T15:47:25.508Z,102041.23
2019-02-12T15:50:15.873Z,102039.05
2019-02-12T15:52:58.415Z,102035.28
2019-02-12T15:55:51.270Z,102025.70
2019-02-12T15:58:53.725Z,102033.28
2019-02-12T16:01:44.067Z,102025.09
2019-02-12T16:04:27.427Z,102033.87
2019-02-12T16:07:17.862Z,102032.58
2019-02-12T16:10:01.451Z,102035.27
2019-02-12T16:12:51.836Z,102034.84
2019-02-12T16:15:35.363Z,102029.63
2019-02-12T16:18:20.642Z,102035.32
2019-02-12T16:21:10.790Z,102032.69
2019-02-12T16:23:54.178Z,102038.39
2019-02-12T16:26:44.557Z,102038.44
2019-02-12T16:29:27.941Z,102037.15
2019-02-12T16:32:18.403Z,102045.42
2019-02-12T16:35:01.922Z,102056.36
2019-02-12T16:37:52.315Z,102055.94
2019-02-12T16:40:35.504Z,102055.91
2019-02-12T16:43:25.892Z,102055.06
2019-02-12T16:46:11.097Z,102067.27
2019-02-12T16:49:01.469Z,102065.55
2019-02-12T16:51:44.573Z,102062.91
2019-02-12T16:54:34.979Z,102066.41
2019-02-12T16:57:17.839Z,102072.95
2019-02-12T17:00:30.744Z,102082.98
2019-02-12T17:03:13.756Z,102079.94
2019-02-12T17:05:56.677Z,102087.34
2019-02-12T17:08:47.096Z,102094.73
2019-02-12T17:11:29.627Z,102090.39
2019-02-12T17:14:20.014Z,102094.77
2019-02-12T17:17:02.626Z,102096.47
2019-02-12T17:19:53.024Z,102104.75
2019-02-12T17:22:43.404Z,102105.17
2019-02-12T17:25:26.196Z,102110.41
2019-02-12T17:28:16.647Z,102103.91
2019-02-12T17:31:00.000Z,102110.38
2019-02-12T17:33:50.381Z,102115.61
2019-02-12T17:36:33.614Z,102115.20
2019-02-12T17:39:16.761Z,102118.22
2019-02-12T17:42:07.124Z,102111.63
2019-02-12T17:44:49.866Z,102113.78
2019-02-12T17:47:40.306Z,102118.16
2019-02-12T17:50:12.609Z,102114.22
2019-02-12T17:53:02.950Z,102114.65
2019-02-12T17:55:53.428Z,102110.72
2019-02-12T17:58:24.695Z,102112.89
2019-02-12T18:01:15.062Z,102119.39
2019-02-12T18:03:57.952Z,102119.83
2019-02-12T18:06:48.347Z,102122.88
2019-02-12T18:09:31.343Z,102121.13
2019-02-12T18:12:21.726Z,102117.63
2019-02-12T18:15:05.074Z,102124.16
2019-02-12T18:17:55.464Z,102118.48
2019-02-12T18:20:38.962Z,102122.80
2019-02-12T18:26:37.529Z,102119.78
2019-02-12T18:29:27.895Z,102111.14
2019-02-12T18:32:10.626Z,102115.52
2019-02-12T18:35:00.984Z,102109.78
2019-02-12T18:37:44.404Z,102107.14
2019-02-12T18:40:28.491Z,102110.23
2019-02-12T18:43:18.896Z,102112.85
2019-02-12T18:46:02.094Z,102111.06
2019-02-12T18:48:52.497Z,102109.31
2019-02-12T18:51:35.990Z,102104.50
2019-02-12T18:54:26.379Z,102104.96
2019-02-12T18:57:09.786Z,102107.17
2019-02-12T19:00:00.224Z,102101.89
2019-02-12T19:02:43.414Z,102105.77
2019-02-12T19:05:33.747Z,102104.89
2019-02-12T19:08:16.585Z,102109.29
2019-02-12T19:11:06.943Z,102106.22
2019-02-12T19:13:50.017Z,102099.23
2019-02-12T19:16:40.471Z,102096.21
2019-02-12T19:19:23.609Z,102090.53
2019-02-12T19:22:14.054Z,102090.97
2019-02-12T19:24:56.832Z,102080.50
2019-02-12T19:27:47.176Z,102083.55
2019-02-12T19:30:29.771Z,102092.25
2019-02-12T19:33:20.123Z,102091.84
2019-02-12T19:36:03.708Z,102091.44
2019-02-12T19:38:54.077Z,102094.45
2019-02-12T19:41:37.101Z,102109.73
2019-02-12T19:44:27.465Z,102108.81
2019-02-12T19:47:10.082Z,102118.36
2019-02-12T19:50:00.484Z,102113.59
2019-02-12T19:52:44.015Z,102114.46
2019-02-12T19:55:34.467Z,102117.51
2019-02-12T19:58:17.885Z,102124.47
2019-02-12T20:01:08.327Z,102124.41
2019-02-12T20:03:51.761Z,102131.83
2019-02-12T20:06:42.200Z,102131.82
2019-02-12T20:09:25.440Z,102137.90
2019-02-12T20:12:15.867Z,102136.17
2019-02-12T20:15:18.361Z,102128.39
2019-02-12T20:18:08.787Z,102123.13
2019-02-12T20:20:52.269Z,102127.91
2019-02-12T20:23:42.686Z,102116.11
2019-02-12T20:26:25.434Z,102113.08
2019-02-12T20:29:34.690Z,102119.61
2019-02-12T20:32:18.039Z,102120.52
2019-02-12T20:35:09.060Z,102117.13
2019-02-12T20:38:11.810Z,102110.68
2019-02-12T20:41:02.185Z,102108.41
2019-02-12T20:43:44.279Z,102109.29
2019-02-12T20:46:25.092Z,102116.17
2019-02-12T20:49:15.426Z,102112.22
2019-02-12T20:51:58.020Z,102106.17
2019-02-12T20:54:48.496Z,102107.42
2019-02-12T20:57:31.739Z,102093.48
2019-02-12T21:03:38.216Z,102123.08
2019-02-12T21:06:21.427Z,102120.43
2019-02-12T21:09:11.865Z,102126.11
2019-02-12T21:11:54.584Z,102123.92
2019-02-12T21:14:44.987Z,102120.00
2019-02-12T21:17:27.936Z,102124.77
2019-02-12T21:20:18.351Z,102133.04
2019-02-12T21:26:11.255Z,102115.30
2019-02-12T21:29:01.669Z,102128.27
2019-02-12T21:31:45.011Z,102121.31
2019-02-12T21:34:35.419Z,102130.45
2019-02-12T21:37:18.475Z,102120.03
2019-02-12T21:40:12.161Z,102117.00
2019-02-12T21:42:55.170Z,102125.66
2019-02-12T21:45:45.602Z,102127.88
2019-02-12T21:48:28.166Z,102131.42
2019-02-12T21:51:18.548Z,102131.37
2019-02-12T21:54:01.105Z,102136.56
2019-02-12T21:56:51.485Z,102149.63
2019-02-12T21:59:34.764Z,102153.13
2019-02-12T22:02:25.171Z,102144.02
2019-02-12T22:05:08.669Z,102157.92
2019-02-12T22:07:51.392Z,102165.31
2019-02-12T22:10:46.402Z,102167.53
2019-02-12T22:13:46.513Z,102177.55
2019-02-12T22:16:36.883Z,102172.33
2019-02-12T22:19:19.497Z,102183.27
2019-02-12T22:22:09.915Z,102165.43
2019-02-12T22:24:53.249Z,102169.75
2019-02-12T22:27:43.609Z,102170.59
2019-02-12T22:30:26.886Z,102180.62
2019-02-12T22:33:17.260Z,102187.16
2019-02-12T22:35:59.803Z,102181.94
2019-02-12T22:38:50.144Z,102183.63
2019-02-12T22:41:33.564Z,102182.33
2019-02-12T22:44:23.835Z,102184.09
2019-02-12T22:47:06.558Z,102180.17
2019-02-12T22:49:56.929Z,102185.36
2019-02-12T22:52:39.716Z,102185.82
2019-02-12T22:55:30.073Z,102186.24
2019-02-12T22:58:13.433Z,102184.48
2019-02-12T23:04:53.411Z,102180.06
2019-02-12T23:07:43.748Z,102187.91
2019-02-12T23:10:26.713Z,102186.17
2019-02-12T23:13:17.097Z,102177.45
2019-02-12T23:16:00.480Z,102175.80
2019-02-12T23:18:50.856Z,102182.64
2019-02-12T23:21:34.233Z,102186.17
2019-02-12T23:24:24.612Z,102191.79
2019-02-12T23:27:07.562Z,102190.91
2019-02-12T23:29:57.957Z,102198.28
2019-02-12T23:32:40.451Z,102194.36
2019-02-12T23:35:30.908Z,102191.40
2019-02-12T23:38:13.459Z,102196.27
2019-02-12T23:41:03.844Z,102198.86
2019-02-12T23:43:47.174Z,102199.31
2019-02-12T23:46:37.507Z,102192.36
2019-02-12T23:49:20.698Z,102193.16
2019-02-12T23:52:11.084Z,102200.20
2019-02-12T23:54:54.299Z,102198.39
2019-02-12T23:57:44.630Z,102198.85
